Time;durP1;ratioP1;P1;durP2;ratioP2;P2;SDS_P1;SDS_P2;PMS_P1;PMS_P2;Temp;Humidity;BMP_temperature;BMP_pressure;BME280_temperature;BME280_humidity;BME280_pressure;Samples;Min_cycle;Max_cycle;Signal;HPM_P1;HPM_P2
2022/02/04 00:06:14;;;;;;;64.78;35.05;;;;;;;1.26;100.00;98945.03;2098742;28;20225;-72
2022/02/04 00:21:30;;;;;;;58.20;39.20;;;;;;;1.01;100.00;98956.69;2098995;28;20198;-72
2022/02/04 00:22:47;;;;;;;61.15;39.38;;;;;;;0.95;100.00;98955.00;2098987;28;20205;-72
2022/02/04 00:23:54;;;;;;;58.65;40.35;;;;;;;0.97;100.00;98960.06;2098474;28;20197;-72
2022/02/04 00:25:01;;;;;;;54.08;38.65;;;;;;;0.95;100.00;98960.25;2098164;28;20202;-72
2022/02/04 00:26:16;;;;;;;55.33;37.03;;;;;;;0.92;100.00;98963.38;2090150;28;20252;-72
2022/02/04 00:27:26;;;;;;;51.72;35.05;;;;;;;0.94;100.00;98971.00;2098112;28;20198;-72
2022/02/04 00:28:48;;;;;;;51.75;36.15;;;;;;;0.97;100.00;98960.84;2091029;28;20285;-72
2022/02/04 00:30:07;;;;;;;42.60;36.65;;;;;;;0.94;100.00;98968.38;2092364;28;20221;-72
2022/02/04 00:31:26;;;;;;;42.33;35.25;;;;;;;0.91;100.00;98974.91;2098445;28;20235;-72
2022/02/04 00:32:38;;;;;;;45.88;36.10;;;;;;;0.87;100.00;98967.72;2098846;28;20622;-72
2022/02/04 00:33:52;;;;;;;45.60;34.60;;;;;;;0.84;100.00;98972.41;2098802;28;20186;-72
2022/02/04 00:35:08;;;;;;;42.17;33.38;;;;;;;0.81;100.00;98961.59;2097937;28;20201;-72
2022/02/04 00:36:24;;;;;;;32.88;28.63;;;;;;;0.83;100.00;98959.53;2091436;28;20195;-72
2022/02/04 00:37:36;;;;;;;40.45;30.65;;;;;;;0.83;100.00;98959.53;2098564;28;20182;-73
2022/02/04 00:38:52;;;;;;;34.92;29.05;;;;;;;0.86;100.00;98961.66;2098988;28;20187;-72
2022/02/04 00:40:10;;;;;;;34.88;28.73;;;;;;;0.85;100.00;98960.09;2098838;28;20319;-72
2022/02/04 00:41:32;;;;;;;32.63;29.15;;;;;;;0.90;100.00;98960.19;2098792;28;20201;-72
2022/02/04 00:42:44;;;;;;;32.53;28.10;;;;;;;0.90;100.00;98962.81;2098757;28;20194;-72
2022/02/04 00:43:53;;;;;;;28.98;26.08;;;;;;;0.92;100.00;98957.31;2098952;28;20258;-73
2022/02/04 00:45:13;;;;;;;28.88;26.08;;;;;;;0.94;100.00;98955.25;2098862;28;20182;-72
2022/02/04 00:46:30;;;;;;;30.42;27.23;;;;;;;0.95;100.00;98952.38;2098635;28;20194;-72
2022/02/04 00:47:42;;;;;;;28.27;25.40;;;;;;;0.97;100.00;98960.84;2106170;28;20234;-71
2022/02/04 00:49:00;;;;;;;31.38;26.40;;;;;;;0.98;100.00;98949.31;2097582;28;20222;-72
2022/02/04 00:50:22;;;;;;;30.70;25.05;;;;;;;1.01;100.00;98950.66;2100342;28;20581;-71
2022/02/04 00:51:40;;;;;;;30.25;26.30;;;;;;;1.00;100.00;98944.59;2097477;28;20230;-72
2022/02/04 00:52:51;;;;;;;28.38;25.48;;;;;;;1.02;100.00;98945.16;2091711;28;20227;-72
2022/02/04 00:54:14;;;;;;;30.25;26.48;;;;;;;1.04;100.00;98943.13;2098183;28;20648;-72
2022/02/04 00:55:30;;;;;;;33.03;27.65;;;;;;;1.08;100.00;98946.06;2098741;28;20194;-72
2022/02/04 00:57:04;;;;;;;35.10;31.40;;;;;;;1.08;100.00;98946.06;2097445;28;20209;-72
2022/02/04 01:26:14;;;;;;;38.47;27.33;;;;;;;1.34;100.00;98886.81;2098445;28;20643;-73
2022/02/04 01:27:23;;;;;;;33.85;28.25;;;;;;;1.34;100.00;98877.09;2098470;28;20648;-73
2022/02/04 01:28:32;;;;;;;32.53;26.48;;;;;;;1.36;100.00;98871.59;2098530;28;20239;-73
2022/02/04 01:29:52;;;;;;;34.50;27.63;;;;;;;1.34;100.00;98868.44;2098451;28;20648;-73
2022/02/04 01:31:16;;;;;;;35.08;28.35;;;;;;;1.32;100.00;98868.66;2098537;28;20668;-73
2022/02/04 01:32:28;;;;;;;40.80;30.60;;;;;;;1.31;100.00;98869.72;2105882;28;20205;-73
2022/02/04 01:33:45;;;;;;;32.00;28.52;;;;;;;1.29;100.00;98856.00;2104502;28;20184;-73
2022/02/04 01:34:57;;;;;;;38.08;29.15;;;;;;;1.32;100.00;98865.25;2097273;28;20565;-73
2022/02/04 01:36:15;;;;;;;35.90;29.65;;;;;;;1.34;100.00;98852.66;2098112;28;20229;-73
2022/02/04 01:37:25;;;;;;;36.60;27.60;;;;;;;1.31;100.00;98853.94;2098580;28;20243;-73
2022/02/04 01:38:41;;;;;;;33.63;28.27;;;;;;;1.31;100.00;98845.25;2097547;28;20205;-73
2022/02/04 01:40:00;;;;;;;32.55;29.13;;;;;;;1.30;100.00;98848.91;2097718;28;20206;-73
2022/02/04 01:41:16;;;;;;;32.10;27.02;;;;;;;1.27;100.00;98841.50;2099150;28;20171;-73
2022/02/04 01:42:23;;;;;;;35.63;27.15;;;;;;;1.28;100.00;98840.47;2100332;28;20212;-73
2022/02/04 01:43:55;;;;;;;34.80;26.77;;;;;;;1.26;100.00;98840.72;2100142;28;20194;-73
2022/02/04 01:44:59;;;;;;;34.50;27.45;;;;;;;1.25;100.00;98835.72;2100241;28;20243;-73
2022/02/04 01:46:09;;;;;;;34.55;26.35;;;;;;;1.25;100.00;98828.63;2100368;28;20204;-73
2022/02/04 01:47:17;;;;;;;32.20;28.67;;;;;;;1.23;100.00;98827.28;2100368;28;20231;-73
2022/02/04 01:48:29;;;;;;;35.13;27.48;;;;;;;1.19;100.00;98824.31;2099135;28;20194;-73
2022/02/04 01:49:38;;;;;;;38.15;27.65;;;;;;;1.19;100.00;98821.69;2099736;28;20201;-73
2022/02/04 01:50:53;;;;;;;30.33;26.20;;;;;;;1.20;100.00;98819.84;2107399;28;20241;-73
2022/02/04 01:51:58;;;;;;;32.28;26.60;;;;;;;1.29;100.00;98823.66;2099066;28;20296;-73
2022/02/04 01:53:08;;;;;;;34.13;28.70;;;;;;;1.36;100.00;98819.84;2099695;28;20715;-73
2022/02/04 01:54:14;;;;;;;33.28;26.48;;;;;;;1.33;100.00;98816.91;2099136;28;20292;-73
2022/02/04 01:55:29;;;;;;;29.50;26.33;;;;;;;1.28;100.00;98814.97;2099863;28;20186;-73
2022/02/04 01:56:41;;;;;;;34.40;27.35;;;;;;;1.25;100.00;98814.69;2099423;28;20235;-73
2022/02/04 01:57:51;;;;;;;34.83;27.23;;;;;;;1.20;100.00;98811.97;2099685;28;20220;-73
2022/02/04 01:59:02;;;;;;;33.05;27.85;;;;;;;1.18;100.00;98808.78;2107456;28;20300;-73
2022/02/04 02:00:14;;;;;;;27.40;24.48;;;;;;;1.18;100.00;98804.34;2106746;28;20554;-73
2022/02/04 02:01:27;;;;;;;31.98;24.38;;;;;;;1.19;100.00;98805.91;2100002;28;20209;-73
2022/02/04 02:02:28;;;;;;;31.30;25.98;;;;;;;1.18;100.00;98808.78;2099309;28;20198;-73
2022/02/04 02:03:31;;;;;;;30.95;25.85;;;;;;;1.19;100.00;98802.50;2099588;28;20680;-73
2022/02/04 02:04:34;;;;;;;28.52;25.58;;;;;;;1.19;100.00;98807.75;2100141;28;20292;-73
2022/02/04 02:05:40;;;;;;;30.00;26.23;;;;;;;1.20;100.00;98807.50;2100351;28;20244;-71
2022/02/04 02:06:51;;;;;;;27.75;24.45;;;;;;;1.19;100.00;98805.91;2100032;28;20560;-74
2022/02/04 02:08:10;;;;;;;31.58;24.77;;;;;;;1.23;100.00;98803.63;2100146;28;20747;-73
2022/02/04 02:09:19;;;;;;;36.55;24.88;;;;;;;1.21;100.00;98803.03;2100214;28;20223;-73
2022/02/04 02:10:27;;;;;;;30.05;24.30;;;;;;;1.19;100.00;98799.88;2100023;28;20220;-73
2022/02/04 02:11:33;;;;;;;30.88;25.95;;;;;;;1.16;100.00;98801.16;2098853;28;20679;-73
2022/02/04 02:12:44;;;;;;;26.98;24.10;;;;;;;1.13;100.00;98797.19;2099209;28;20203;-74
2022/02/04 02:13:53;;;;;;;26.13;23.30;;;;;;;1.13;100.00;98797.19;2099259;28;20198;-73
2022/02/04 02:15:17;;;;;;;26.90;24.15;;;;;;;1.17;100.00;98799.31;2099373;28;20198;-73
2022/02/04 02:16:52;;;;;;;29.75;24.63;;;;;;;1.16;100.00;98797.75;2099947;28;20217;-73
2022/02/04 02:37:12;;;;;;;30.92;24.58;;;;;;;1.33;100.00;98788.00;2089707;28;20191;-73
2022/02/04 02:44:35;;;;;;;29.10;24.20;;;;;;;1.36;100.00;98775.16;2023429;27;3004722;-72
2022/02/04 02:47:33;;;;;;;26.95;24.10;;;;;;;1.35;100.00;98778.81;2108744;28;20201;-72
2022/02/04 02:49:23;;;;;;;28.27;25.48;;;;;;;1.34;100.00;98779.06;2108077;28;20306;-72
2022/02/04 02:51:03;;;;;;;27.50;23.45;;;;;;;1.34;100.00;98781.69;2120602;28;20237;-73
2022/02/04 02:52:24;;;;;;;27.50;24.60;;;;;;;1.33;100.00;98786.16;2122671;28;20204;-73
2022/02/04 02:53:59;;;;;;;32.25;26.48;;;;;;;1.33;100.00;98788.78;2113126;28;20208;-73
2022/02/04 02:55:19;;;;;;;29.15;24.75;;;;;;;1.32;100.00;98791.66;2114021;28;20177;-73
2022/02/04 02:58:15;;;;;;;29.25;24.67;;;;;;;1.36;100.00;98792.75;2109176;28;20189;-73
2022/02/04 02:59:46;;;;;;;30.35;26.88;;;;;;;1.36;100.00;98785.66;2113864;28;20254;-73
2022/02/04 03:00:59;;;;;;;33.30;25.48;;;;;;;1.37;100.00;98791.72;2105107;28;20633;-73
2022/02/04 03:02:05;;;;;;;27.27;24.38;;;;;;;1.37;100.00;98784.63;2106809;28;20214;-73
2022/02/04 03:03:13;;;;;;;29.33;26.02;;;;;;;1.39;100.00;98785.19;2114169;28;20710;-73
2022/02/04 03:04:18;;;;;;;30.08;25.85;;;;;;;1.38;100.00;98783.59;2114092;28;20230;-72
2022/02/04 03:05:28;;;;;;;28.58;23.85;;;;;;;1.39;100.00;98779.13;2104585;28;20209;-73
2022/02/04 03:06:36;;;;;;;30.17;23.70;;;;;;;1.38;100.00;98780.94;2106622;28;20205;-73
2022/02/04 03:07:50;;;;;;;26.73;23.83;;;;;;;1.41;100.00;98782.31;2113982;28;20242;-73
2022/02/04 03:09:10;;;;;;;30.70;25.67;;;;;;;1.39;100.00;98777.31;2114056;28;20662;-73
2022/02/04 03:10:37;;;;;;;30.38;26.02;;;;;;;1.38;100.00;98773.06;2114084;28;20215;-73
2022/02/04 03:11:56;;;;;;;30.40;24.13;;;;;;;1.38;100.00;98767.03;2104555;28;20224;-73
2022/02/04 03:13:21;;;;;;;26.92;23.85;;;;;;;1.39;100.00;98773.88;2098768;28;20367;-73
2022/02/04 03:14:33;;;;;;;29.85;26.73;;;;;;;1.39;100.00;98769.44;2108180;28;20241;-73
2022/02/04 03:15:42;;;;;;;28.23;25.48;;;;;;;1.39;100.00;98768.59;2103657;28;20224;-73
2022/02/04 03:16:49;;;;;;;28.85;25.92;;;;;;;1.36;100.00;98766.47;2096965;28;20683;-73
2022/02/04 03:18:03;;;;;;;28.92;25.95;;;;;;;1.37;100.00;98770.69;2096356;28;20714;-73
2022/02/04 03:19:26;;;;;;;29.02;26.02;;;;;;;1.38;100.00;98773.06;2106821;28;20197;-73
2022/02/04 03:20:41;;;;;;;30.17;27.05;;;;;;;1.38;100.00;98778.31;2113749;28;20246;-72
2022/02/04 03:22:04;;;;;;;28.30;25.38;;;;;;;1.38;100.00;98772.28;2114307;28;20181;-72
2022/02/04 03:23:19;;;;;;;28.42;25.52;;;;;;;1.36;100.00;98782.25;2104853;28;20274;-72
2022/02/04 03:24:40;;;;;;;31.65;26.13;;;;;;;1.35;100.00;98772.78;2104009;28;20217;-73
2022/02/04 03:25:50;;;;;;;29.63;26.58;;;;;;;1.34;100.00;98771.97;2107379;28;20695;-73
2022/02/04 03:27:07;;;;;;;26.65;23.88;;;;;;;1.34;100.00;98765.94;2113445;28;20233;-73
2022/02/04 03:28:20;;;;;;;27.50;24.67;;;;;;;1.34;100.00;98766.72;2113949;28;20199;-72
2022/02/04 03:30:00;;;;;;;27.10;24.17;;;;;;;1.35;100.00;98767.50;2103723;28;20592;-73
2022/02/04 03:31:12;;;;;;;28.33;25.20;;;;;;;1.36;100.00;98771.72;2100968;28;20200;-73
2022/02/04 03:32:24;;;;;;;31.08;23.92;;;;;;;1.36;100.00;98769.09;2106621;28;20599;-72
2022/02/04 03:33:45;;;;;;;28.98;24.15;;;;;;;1.38;100.00;98759.13;2104058;28;20198;-73
2022/02/04 03:34:59;;;;;;;29.25;24.98;;;;;;;1.38;100.00;98753.88;2098603;28;20204;-73
2022/02/04 03:36:08;;;;;;;32.20;26.73;;;;;;;1.37;100.00;98749.66;2106677;28;20197;-72
2022/02/04 03:37:14;;;;;;;30.90;24.45;;;;;;;1.34;100.00;98750.94;2104094;28;20225;-73
2022/02/04 03:38:29;;;;;;;29.88;24.15;;;;;;;1.36;100.00;98748.88;2095406;28;20206;-73
2022/02/04 03:39:40;;;;;;;27.05;23.80;;;;;;;1.33;100.00;98752.00;2097981;28;20209;-73
2022/02/04 03:40:59;;;;;;;31.35;24.83;;;;;;;1.35;100.00;98754.38;2106170;28;20186;-73
2022/02/04 03:42:11;;;;;;;26.63;23.90;;;;;;;1.36;100.00;98758.59;2104695;28;20323;-73
2022/02/04 03:43:21;;;;;;;27.17;23.48;;;;;;;1.35;100.00;98749.13;2097585;28;20202;-73
2022/02/04 03:44:31;;;;;;;27.30;24.40;;;;;;;1.36;100.00;98755.97;2088913;28;20219;-73
2022/02/04 03:45:46;;;;;;;29.67;25.25;;;;;;;1.36;100.00;98748.88;2088906;28;20246;-73
2022/02/04 03:46:50;;;;;;;31.73;24.75;;;;;;;1.36;100.00;98753.34;2096521;28;20193;-73
2022/02/04 03:48:01;;;;;;;27.98;25.05;;;;;;;1.34;100.00;98750.16;2096985;28;20182;-73
2022/02/04 03:49:09;;;;;;;28.20;24.80;;;;;;;1.34;100.00;98747.53;2095832;28;20210;-73
2022/02/04 03:50:19;;;;;;;27.33;24.40;;;;;;;1.35;100.00;98752.53;2096536;28;20205;-73
2022/02/04 03:51:32;;;;;;;29.17;26.25;;;;;;;1.32;100.00;98742.53;2103897;28;20205;-73
2022/02/04 03:52:39;;;;;;;35.53;25.90;;;;;;;1.33;100.00;98744.13;2096896;28;20691;-73
2022/02/04 03:53:50;;;;;;;30.45;25.45;;;;;;;1.34;100.00;98755.41;2095872;28;20226;-73
2022/02/04 03:54:58;;;;;;;28.30;25.75;;;;;;;1.29;100.00;98755.34;2095278;28;20676;-72
2022/02/04 03:56:15;;;;;;;32.05;27.92;;;;;;;1.31;100.00;98759.34;2090082;28;20203;-72
2022/02/04 03:57:24;;;;;;;29.95;25.83;;;;;;;1.27;100.00;98750.31;2083761;28;20207;-73
2022/02/04 03:58:32;;;;;;;31.75;25.55;;;;;;;1.27;100.00;98754.78;2082841;28;20230;-73
2022/02/04 03:59:43;;;;;;;28.05;25.02;;;;;;;1.29;100.00;98752.72;2091001;28;20664;-72
2022/02/04 04:01:03;;;;;;;31.23;25.02;;;;;;;1.28;100.00;98756.38;2091441;28;20187;-73
2022/02/04 04:02:06;;;;;;;30.00;26.42;;;;;;;1.30;100.00;98749.03;2089885;28;20252;-73
2022/02/04 04:03:16;;;;;;;29.23;25.70;;;;;;;1.31;100.00;98740.16;2090855;28;20244;-73
2022/02/04 04:04:21;;;;;;;26.65;23.98;;;;;;;1.30;100.00;98741.16;2091370;28;20207;-73
2022/02/04 04:05:32;;;;;;;33.08;24.90;;;;;;;1.31;100.00;98740.16;2091429;28;20702;-73
2022/02/04 04:06:39;;;;;;;31.73;25.38;;;;;;;1.31;100.00;98740.16;2091691;28;20172;-72
2022/02/04 04:07:49;;;;;;;31.42;25.50;;;;;;;1.28;100.00;98736.16;2090588;28;20285;-72
2022/02/04 04:08:58;;;;;;;29.08;24.33;;;;;;;1.33;100.00;98730.19;2090809;28;20191;-72
2022/02/04 04:10:15;;;;;;;30.10;25.17;;;;;;;1.33;100.00;98738.06;2091277;28;20195;-73
2022/02/04 04:11:26;;;;;;;28.55;25.13;;;;;;;1.28;100.00;98732.72;2091319;28;20229;-72
2022/02/04 04:12:39;;;;;;;27.45;24.30;;;;;;;1.27;100.00;98745.06;2090712;28;20685;-73
2022/02/04 04:13:46;;;;;;;28.02;24.50;;;;;;;1.26;100.00;98737.44;2091148;28;20665;-73
2022/02/04 04:14:56;;;;;;;26.92;23.95;;;;;;;1.25;100.00;98736.66;2089925;28;20631;-72
2022/02/04 04:16:13;;;;;;;30.05;24.35;;;;;;;1.20;100.00;98733.94;2082905;28;20228;-73
2022/02/04 04:17:27;;;;;;;33.80;25.17;;;;;;;1.24;100.00;98740.31;2084324;28;20693;-73
2022/02/04 04:18:39;;;;;;;27.17;24.40;;;;;;;1.23;100.00;98733.47;2091014;28;20179;-73
2022/02/04 04:19:45;;;;;;;33.13;25.55;;;;;;;1.26;100.00;98734.81;2090609;28;20206;-72
2022/02/04 04:20:57;;;;;;;34.10;27.30;;;;;;;1.26;100.00;98727.72;2090607;28;20195;-73
2022/02/04 04:22:04;;;;;;;33.15;26.83;;;;;;;1.26;100.00;98725.09;2089748;28;20210;-73
2022/02/04 04:23:18;;;;;;;30.48;27.27;;;;;;;1.27;100.00;98724.06;2090612;28;20202;-73
2022/02/04 04:24:29;;;;;;;30.48;27.17;;;;;;;1.27;100.00;98725.88;2090009;28;20222;-73
2022/02/04 04:25:41;;;;;;;29.10;25.95;;;;;;;1.25;100.00;98714.84;2090802;28;20643;-73
2022/02/04 04:26:51;;;;;;;29.25;26.05;;;;;;;1.24;100.00;98708.00;2091331;28;20656;-73
2022/02/04 04:28:08;;;;;;;29.77;26.60;;;;;;;1.20;100.00;98710.28;2090205;28;20261;-73
2022/02/04 04:29:15;;;;;;;29.27;25.95;;;;;;;1.19;100.00;98716.59;2090893;28;20652;-73
2022/02/04 04:30:28;;;;;;;29.63;26.45;;;;;;;1.17;100.00;98716.03;2091147;28;20187;-73
2022/02/04 04:31:41;;;;;;;29.95;26.83;;;;;;;1.16;100.00;98711.84;2091352;28;20179;-73
2022/02/04 04:32:52;;;;;;;38.75;27.23;;;;;;;1.17;100.00;98716.03;2091201;28;20190;-73
2022/02/04 04:34:06;;;;;;;30.60;27.27;;;;;;;1.17;100.00;98710.78;2091080;28;20709;-73
2022/02/04 04:35:19;;;;;;;36.28;28.25;;;;;;;1.18;100.00;98714.22;2091231;28;20277;-73
2022/02/04 04:36:33;;;;;;;31.23;26.67;;;;;;;1.17;100.00;98717.88;2090073;28;20296;-73
2022/02/04 04:37:45;;;;;;;32.67;27.30;;;;;;;1.20;100.00;98712.13;2090999;28;20179;-74
2022/02/04 04:39:09;;;;;;;31.83;27.73;;;;;;;1.23;100.00;98719.53;2091117;28;20240;-73
2022/02/04 04:40:34;;;;;;;35.28;27.88;;;;;;;1.23;100.00;98707.19;2089669;28;20223;-73
2022/02/04 04:42:10;;;;;;;29.73;25.73;;;;;;;1.27;100.00;98710.13;2090802;28;20708;-73
2022/02/04 04:43:35;;;;;;;36.20;25.98;;;;;;;1.25;100.00;98705.13;2089436;28;20213;-73
2022/02/04 05:26:19;;;;;;;32.20;27.70;;;;;;;1.34;100.00;98695.75;2097478;28;20244;-73
2022/02/04 05:28:56;;;;;;;32.05;26.83;;;;;;;1.37;100.00;98683.97;2090824;28;20565;-73
2022/02/04 05:30:12;;;;;;;33.83;26.83;;;;;;;1.34;100.00;98687.09;2090572;28;20244;-72
2022/02/04 05:31:34;;;;;;;31.35;25.75;;;;;;;1.32;100.00;98683.91;2090566;28;20195;-72
2022/02/04 05:32:39;;;;;;;33.95;25.75;;;;;;;1.32;100.00;98683.91;2089366;28;20202;-72
2022/02/04 05:33:53;;;;;;;29.83;26.50;;;;;;;1.34;100.00;98681.84;2089964;28;20673;-73
2022/02/04 05:35:11;;;;;;;30.35;25.88;;;;;;;1.34;100.00;98684.47;2090763;28;20196;-73
2022/02/04 05:36:20;;;;;;;33.53;26.35;;;;;;;1.36;100.00;98685.00;2089242;28;20209;-73
2022/02/04 05:37:33;;;;;;;32.03;26.13;;;;;;;1.33;100.00;98681.03;2082083;28;20290;-73
2022/02/04 05:38:42;;;;;;;31.85;25.50;;;;;;;1.34;100.00;98684.47;2090209;28;20186;-73
2022/02/04 05:40:05;;;;;;;34.25;27.13;;;;;;;1.32;100.00;98684.72;2088781;28;20293;-73
2022/02/04 05:41:34;;;;;;;31.63;26.45;;;;;;;1.30;100.00;98691.22;2090356;28;20187;-73
2022/02/04 05:42:58;;;;;;;32.90;25.75;;;;;;;1.29;100.00;98693.06;2089558;28;20684;-73
2022/02/04 05:44:16;;;;;;;31.15;25.52;;;;;;;1.28;100.00;98688.84;2096015;28;20218;-72
2022/02/04 05:45:23;;;;;;;26.95;24.13;;;;;;;1.26;100.00;98690.94;2098137;28;20198;-72
2022/02/04 05:46:37;;;;;;;35.22;24.63;;;;;;;1.23;100.00;98691.44;2090775;28;20708;-72
2022/02/04 05:47:41;;;;;;;34.85;25.20;;;;;;;1.20;100.00;98691.09;2091384;28;20735;-72
2022/02/04 05:48:52;;;;;;;35.80;25.75;;;;;;;1.17;100.00;98689.78;2098269;28;20221;-72
2022/02/04 05:50:12;;;;;;;29.02;25.30;;;;;;;1.16;100.00;98692.66;2098762;28;20816;-73
2022/02/04 05:53:13;;;;;;;33.92;24.48;;;;;;;1.08;100.00;98691.22;2092303;28;20740;-73
2022/02/04 05:54:39;;;;;;;32.78;26.23;;;;;;;1.03;100.00;98691.94;2098574;28;20224;-73
2022/02/04 05:55:55;;;;;;;31.83;24.63;;;;;;;0.99;100.00;98688.22;2098811;28;20201;-73
2022/02/04 05:57:20;;;;;;;34.50;23.92;;;;;;;0.98;100.00;98691.09;2098854;28;20269;-73
2022/02/04 05:58:43;;;;;;;30.90;23.50;;;;;;;0.97;100.00;98695.56;2098780;28;20205;-73
2022/02/04 06:00:21;;;;;;;29.17;24.00;;;;;;;0.97;100.00;98698.19;2097883;28;20689;-73
2022/02/04 06:01:41;;;;;;;31.83;24.55;;;;;;;0.97;100.00;98695.56;2097732;28;20300;-73
2022/02/04 06:03:01;;;;;;;26.88;23.67;;;;;;;0.97;100.00;98695.56;2091940;28;20210;-73
2022/02/04 06:04:18;;;;;;;30.42;23.23;;;;;;;0.97;100.00;98695.56;2098338;28;20197;-73
2022/02/04 06:05:52;;;;;;;34.00;24.33;;;;;;;0.96;100.00;98682.69;2098863;28;20255;-73
2022/02/04 06:07:21;;;;;;;29.00;25.35;;;;;;;0.94;100.00;98688.16;2097618;28;20202;-73
2022/02/04 06:08:44;;;;;;;28.38;25.35;;;;;;;0.92;100.00;98702.56;2093480;28;20202;-73
2022/02/04 06:11:29;;;;;;;35.08;26.20;;;;;;;0.82;100.00;98708.47;2098510;28;20197;-73
2022/02/04 06:13:07;;;;;;;30.85;25.38;;;;;;;0.83;100.00;98705.59;2097525;28;20396;-73
2022/02/04 06:14:46;;;;;;;34.65;25.42;;;;;;;0.83;100.00;98702.19;2094531;28;20205;-74
2022/02/04 06:22:53;;;;;;;31.60;25.73;;;;;;;0.77;100.00;98700.50;2097646;28;20198;-73
2022/02/04 06:23:54;;;;;;;32.08;25.40;;;;;;;0.75;100.00;98702.59;2097204;28;20202;-73
2022/02/04 06:25:00;;;;;;;31.75;26.05;;;;;;;0.72;100.00;98696.00;2089585;28;20284;-73
2022/02/04 06:26:11;;;;;;;36.72;26.27;;;;;;;0.72;100.00;98695.19;2097596;28;20303;-73
2022/02/04 06:27:17;;;;;;;33.22;25.65;;;;;;;0.72;100.00;98700.44;2097521;28;20302;-73
2022/02/04 06:28:28;;;;;;;32.75;25.63;;;;;;;0.71;100.00;98704.13;2098016;28;20191;-73
2022/02/04 06:29:33;;;;;;;30.23;26.27;;;;;;;0.70;100.00;98703.31;2097948;28;20201;-73
2022/02/04 06:30:39;;;;;;;34.08;25.52;;;;;;;0.77;100.00;98705.75;2098116;28;20265;-73
2022/02/04 06:31:45;;;;;;;32.95;25.33;;;;;;;0.80;100.00;98702.69;2098881;28;20193;-73
2022/02/04 06:32:48;;;;;;;40.92;29.23;;;;;;;0.79;100.00;98715.00;2097522;28;20209;-73
2022/02/04 06:33:54;;;;;;;32.88;26.25;;;;;;;0.79;100.00;98715.00;2089520;28;20253;-73
2022/02/04 06:34:58;;;;;;;37.70;26.25;;;;;;;0.80;100.00;98715.81;2098120;28;20764;-73
2022/02/04 06:36:06;;;;;;;38.90;26.98;;;;;;;0.81;100.00;98717.38;2098512;28;20198;-73
2022/02/04 06:37:20;;;;;;;32.58;26.50;;;;;;;0.81;100.00;98715.56;2098586;28;20580;-73
2022/02/04 06:38:27;;;;;;;31.08;25.70;;;;;;;0.88;100.00;98714.59;2098588;28;20182;-73
2022/02/04 06:39:39;;;;;;;36.25;27.35;;;;;;;0.89;100.00;98705.69;2098430;28;20200;-73
2022/02/04 06:40:48;;;;;;;34.08;25.70;;;;;;;0.92;100.00;98710.44;2098529;28;20198;-73
2022/02/04 06:42:01;;;;;;;36.08;25.67;;;;;;;0.93;100.00;98712.81;2097431;28;20198;-73
2022/02/04 06:43:06;;;;;;;29.75;25.45;;;;;;;0.96;100.00;98707.09;2098177;28;20670;-73
2022/02/04 06:44:19;;;;;;;35.83;25.08;;;;;;;0.99;100.00;98703.97;2105512;28;20591;-73
2022/02/04 06:45:23;;;;;;;31.10;24.90;;;;;;;0.99;100.00;98716.31;2106856;28;20229;-73
2022/02/04 06:46:25;;;;;;;32.22;25.60;;;;;;;0.98;100.00;98712.13;2097356;28;20205;-75
2022/02/04 06:47:31;;;;;;;31.77;24.92;;;;;;;1.00;100.00;98702.94;2089514;28;20198;-71
2022/02/04 06:48:44;;;;;;;33.95;25.45;;;;;;;1.01;100.00;98714.25;2099212;28;20194;-73
2022/02/04 06:49:49;;;;;;;31.08;25.33;;;;;;;1.02;100.00;98705.31;2106801;28;20710;-74
2022/02/04 06:50:52;;;;;;;34.58;25.80;;;;;;;1.05;100.00;98707.50;2106916;28;20239;-74
2022/02/04 06:51:54;;;;;;;39.35;25.05;;;;;;;1.08;100.00;98702.53;2097421;28;20198;-72
2022/02/04 06:52:58;;;;;;;41.83;27.05;;;;;;;1.11;100.00;98707.28;2098124;28;20690;-74
2022/02/04 06:54:00;;;;;;;33.67;25.38;;;;;;;1.15;100.00;98704.19;2097853;28;20754;-72
2022/02/04 06:55:03;;;;;;;35.03;25.75;;;;;;;1.17;100.00;98704.75;2088890;28;20691;-71
2022/02/04 06:56:05;;;;;;;34.20;26.58;;;;;;;1.18;100.00;98712.38;2088988;28;20250;-71
2022/02/04 06:57:07;;;;;;;38.15;26.25;;;;;;;1.20;100.00;98704.25;2097342;28;20952;-72
2022/02/04 06:58:12;;;;;;;37.55;27.80;;;;;;;1.22;100.00;98707.44;2097448;28;20438;-74
2022/02/04 06:59:16;;;;;;;35.95;27.85;;;;;;;1.23;100.00;98703.78;2098388;28;20255;-78
2022/02/04 07:00:18;;;;;;;38.15;27.02;;;;;;;1.26;100.00;98706.69;2106785;28;20656;-77
2022/02/04 07:01:20;;;;;;;34.20;26.30;;;;;;;1.30;100.00;98715.69;2096943;28;20220;-75
2022/02/04 07:02:26;;;;;;;38.63;28.23;;;;;;;1.32;100.00;98716.25;2097313;28;20288;-75
2022/02/04 07:03:29;;;;;;;37.42;27.25;;;;;;;1.33;100.00;98706.53;2097466;28;20194;-76
2022/02/04 07:04:35;;;;;;;40.90;27.98;;;;;;;1.35;100.00;98709.69;2089548;28;20576;-75
2022/02/04 07:05:42;;;;;;;35.20;26.60;;;;;;;1.35;100.00;98701.81;2089533;28;20621;-76
2022/02/04 07:06:53;;;;;;;32.90;26.70;;;;;;;1.40;100.00;98717.66;2097764;28;20296;-76
2022/02/04 07:08:10;;;;;;;37.97;26.65;;;;;;;1.37;100.00;98707.63;2098159;28;20661;-75
2022/02/04 07:09:22;;;;;;;34.38;25.52;;;;;;;1.38;100.00;98702.09;2096166;28;20266;-75
2022/02/04 07:10:32;;;;;;;36.10;25.38;;;;;;;1.39;100.00;98708.16;2091431;28;20240;-75
2022/02/04 07:12:01;;;;;;;38.50;26.20;;;;;;;1.41;100.00;98708.72;2096753;28;20252;-76
2022/02/04 07:13:14;;;;;;;37.53;25.92;;;;;;;1.42;100.00;98703.22;2090162;28;20217;-76
2022/02/04 07:14:28;;;;;;;33.05;26.73;;;;;;;1.41;100.00;98701.63;2090135;28;20218;-76
2022/02/04 07:19:47;;;;;;;32.10;25.80;;;;;;;1.53;100.00;98700.72;2089964;28;20183;-76
2022/02/04 07:20:52;;;;;;;33.47;27.65;;;;;;;1.53;100.00;98690.97;2090410;28;20183;-80
2022/02/04 07:22:01;;;;;;;33.05;26.83;;;;;;;1.54;100.00;98700.44;2089511;28;20187;-76
2022/02/04 07:23:11;;;;;;;32.55;26.25;;;;;;;1.57;100.00;98705.25;2082948;28;20215;-77
2022/02/04 07:24:20;;;;;;;30.23;25.17;;;;;;;1.59;100.00;98705.00;2089681;28;20199;-75
2022/02/04 07:25:26;;;;;;;29.45;25.38;;;;;;;1.60;100.00;98703.94;2089385;28;20292;-75
2022/02/04 07:26:32;;;;;;;36.75;27.13;;;;;;;1.62;100.00;98705.28;2089605;28;20191;-78
2022/02/04 07:27:38;;;;;;;33.83;26.83;;;;;;;1.64;100.00;98708.44;2090117;28;20226;-72
2022/02/04 07:28:40;;;;;;;38.13;26.75;;;;;;;1.63;100.00;98704.22;2089822;28;20835;-74
2022/02/04 07:29:47;;;;;;;33.40;25.92;;;;;;;1.63;100.00;98698.19;2090232;28;20526;-75
2022/02/04 07:30:51;;;;;;;34.05;25.67;;;;;;;1.66;100.00;98703.75;2091500;28;20163;-75
2022/02/04 07:31:54;;;;;;;35.22;25.73;;;;;;;1.67;100.00;98702.72;2091831;28;20225;-73
2022/02/04 07:33:05;;;;;;;36.15;26.30;;;;;;;1.66;100.00;98713.50;2091611;28;20199;-77
2022/02/04 07:34:19;;;;;;;39.30;27.77;;;;;;;1.66;100.00;98706.38;2090993;28;20253;-74
2022/02/04 07:35:37;;;;;;;39.92;27.13;;;;;;;1.71;100.00;98710.91;2093142;28;20272;-77
2022/02/04 07:40:56;;;;;;;44.80;28.83;;;;;;;1.78;100.00;98706.25;2091737;28;20228;-80
2022/02/04 07:41:57;;;;;;;39.20;28.50;;;;;;;1.80;100.00;98700.72;2090870;28;20581;-75
2022/02/04 07:43:01;;;;;;;40.80;28.02;;;;;;;1.84;100.00;98709.72;2091188;28;20193;-76
2022/02/04 07:44:04;;;;;;;46.67;29.75;;;;;;;1.88;100.00;98708.97;2090727;28;20709;-76
2022/02/04 07:45:07;;;;;;;39.00;28.73;;;;;;;1.93;100.00;98708.25;2091142;28;20669;-77
2022/02/04 07:46:13;;;;;;;36.00;27.95;;;;;;;1.97;100.00;98706.69;2090854;28;20203;-77
2022/02/04 07:47:16;;;;;;;34.90;27.27;;;;;;;2.03;100.00;98708.34;2091503;28;20190;-78
2022/02/04 07:48:20;;;;;;;34.95;28.17;;;;;;;2.07;100.00;98706.00;2090822;28;20631;-78
2022/02/04 07:49:22;;;;;;;43.85;28.45;;;;;;;2.14;100.00;98707.38;2091684;28;20559;-78
2022/02/04 07:50:26;;;;;;;36.08;27.45;;;;;;;2.25;100.00;98713.53;2091043;28;20191;-77
2022/02/04 07:51:30;;;;;;;36.33;27.60;;;;;;;2.30;100.00;98718.06;2091041;28;20313;-77
2022/02/04 07:52:32;;;;;;;39.63;28.75;;;;;;;2.36;100.00;98714.44;2090652;28;20233;-77